KFOT - Fortuna, California, USA
Updated: Tue, 21-Nov-2017 3:35am PST
Overcast
Overcast
 Wind from SSE
Wind: SSE 7 mph , 11 km/h
Temperature: 63°F , 17°C
Dew Point: 55°F , 13°C
Humidity: 77%
Barometer: 30.07 inHg , 1018.3 hPa
Clouds: Overcast
Visibility: 10 miles , 16 km
Cloud details: Few Clouds 6000 ft
Partly Cloudy 7500 ft
Overcast 9000 ft
2017/11/21 11:35 KFOT 211135Z AUTO 15006KT 10SM FEW060 SCT075 OVC090 17/13 A3007 RMK AO1

Metar display script from Saratoga-Weather.org